Time;durP1;ratioP1;P1;durP2;ratioP2;P2;SDS_P1;SDS_P2;PMS_P1;PMS_P2;Temp;Humidity;BMP_temperature;BMP_pressure;BME280_temperature;BME280_humidity;BME280_pressure;Samples;Min_cycle;Max_cycle;Signal;HPM_P1;HPM_P2
2021/12/12 00:01:17;;;;;;;1.83;0.60;;;;;;;;;;5086419;28;20024;-31
2021/12/12 00:03:48;;;;;;;0.93;0.60;;;;;;;;;;5084898;28;20052;-34
2021/12/12 00:06:21;;;;;;;1.13;0.60;;;;;;;;;;5084562;28;20032;-31
2021/12/12 00:08:48;;;;;;;1.42;0.80;;;;;;;;;;5086774;28;20051;-30
2021/12/12 00:11:16;;;;;;;1.17;0.70;;;;;;;;;;5086318;28;20106;-33
2021/12/12 00:13:49;;;;;;;0.93;0.50;;;;;;;;;;5086660;28;20028;-31
2021/12/12 00:16:15;;;;;;;;;;;;;;;;;;5086891;28;20046;-29
2021/12/12 00:18:40;;;;;;;0.77;0.50;;;;;;;;;;5085840;28;19919;-31
2021/12/12 00:21:07;;;;;;;1.33;0.65;;;;;;;;;;5086005;28;20039;-31
2021/12/12 00:23:33;;;;;;;0.95;0.68;;;;;;;;;;5086411;28;20074;-31
2021/12/12 00:25:59;;;;;;;0.88;0.57;;;;;;;;;;5086161;28;20021;-32
2021/12/12 00:28:25;;;;;;;0.90;0.55;;;;;;;;;;5089794;28;20471;-30
2021/12/12 00:30:52;;;;;;;0.63;0.47;;;;;;;;;;5106568;28;20050;-33
2021/12/12 00:33:18;;;;;;;0.50;0.40;;;;;;;;;;5106591;28;20041;-33
2021/12/12 00:35:44;;;;;;;0.82;0.40;;;;;;;;;;5106079;28;20257;-29
2021/12/12 00:38:16;;;;;;;0.90;0.57;;;;;;;;;;5106073;28;20951;-30
2021/12/12 00:40:43;;;;;;;0.60;0.50;;;;;;;;;;5088446;28;20080;-30
2021/12/12 00:43:23;;;;;;;0.80;0.50;;;;;;;;;;5105991;28;20224;-29
2021/12/12 00:45:50;;;;;;;1.17;0.70;;;;;;;;;;5106359;28;20102;-34
2021/12/12 00:48:15;;;;;;;1.25;0.75;;;;;;;;;;5087927;28;20062;-32
2021/12/12 00:50:42;;;;;;;0.85;0.57;;;;;;;;;;5105913;28;20503;-31
2021/12/12 00:53:08;;;;;;;2.03;0.47;;;;;;;;;;5105748;28;20070;-29
2021/12/12 00:55:37;;;;;;;0.50;0.40;;;;;;;;;;5106361;28;20032;-37
2021/12/12 00:58:07;;;;;;;0.95;0.63;;;;;;;;;;5105866;28;20394;-32
2021/12/12 01:00:39;;;;;;;1.17;0.80;;;;;;;;;;5105708;28;20030;-32
2021/12/12 01:03:07;;;;;;;0.95;0.75;;;;;;;;;;5105701;28;20104;-34
2021/12/12 01:05:32;;;;;;;0.93;0.60;;;;;;;;;;5106009;28;20673;-34
2021/12/12 01:07:58;;;;;;;0.88;0.60;;;;;;;;;;5105829;28;20039;-33
2021/12/12 01:10:30;;;;;;;1.08;0.82;;;;;;;;;;5105780;28;20027;-31
2021/12/12 01:12:56;;;;;;;1.25;1.05;;;;;;;;;;5105320;28;20042;-32
2021/12/12 01:15:42;;;;;;;1.30;1.00;;;;;;;;;;5105482;28;20514;-29
2021/12/12 01:18:14;;;;;;;1.15;0.80;;;;;;;;;;5105641;28;20749;-31
2021/12/12 01:20:51;;;;;;;0.88;0.65;;;;;;;;;;5105717;28;20518;-34
2021/12/12 01:23:21;;;;;;;1.50;0.95;;;;;;;;;;5105211;28;20031;-37
2021/12/12 01:25:48;;;;;;;1.25;0.95;;;;;;;;;;5105987;28;20031;-29
2021/12/12 01:28:15;;;;;;;0.98;0.80;;;;;;;;;;5104968;28;20503;-36
2021/12/12 01:30:41;;;;;;;1.10;0.80;;;;;;;;;;5105674;28;20096;-30
2021/12/12 01:33:09;;;;;;;0.73;0.73;;;;;;;;;;5105154;28;20501;-32
2021/12/12 01:35:36;;;;;;;1.25;0.90;;;;;;;;;;5068139;28;20032;-34
2021/12/12 01:40:50;;;;;;;0.65;0.50;;;;;;;;;;5084539;28;20043;-32
2021/12/12 01:43:19;;;;;;;1.25;0.80;;;;;;;;;;5084877;28;20035;-33
2021/12/12 01:45:47;;;;;;;1.40;0.70;;;;;;;;;;5066887;28;20039;-32
2021/12/12 01:48:31;;;;;;;1.08;0.85;;;;;;;;;;5066699;28;20043;-31
2021/12/12 01:51:00;;;;;;;1.30;1.10;;;;;;;;;;5084567;28;20426;-31
2021/12/12 01:53:27;;;;;;;1.48;0.88;;;;;;;;;;5084588;28;20032;-31
2021/12/12 01:56:18;;;;;;;1.20;0.90;;;;;;;;;;5083994;28;20023;-34
2021/12/12 01:58:44;;;;;;;1.20;0.88;;;;;;;;;;5072275;28;20047;-31
2021/12/12 02:01:26;;;;;;;1.63;1.00;;;;;;;;;;5084347;28;20036;-31
2021/12/12 02:04:02;;;;;;;1.63;0.90;;;;;;;;;;5084176;28;20113;-30
2021/12/12 02:06:28;;;;;;;1.40;1.00;;;;;;;;;;5084217;28;20023;-27
2021/12/12 02:08:54;;;;;;;1.15;0.80;;;;;;;;;;5049012;28;20024;-29
2021/12/12 02:11:25;;;;;;;1.08;0.75;;;;;;;;;;5083397;28;20043;-32
2021/12/12 02:13:53;;;;;;;1.60;1.00;;;;;;;;;;5084354;28;20069;-33
2021/12/12 02:16:18;;;;;;;0.95;0.88;;;;;;;;;;5065475;28;20031;-31
2021/12/12 02:18:48;;;;;;;1.08;0.80;;;;;;;;;;5065381;28;20418;-34
2021/12/12 02:21:21;;;;;;;1.90;1.00;;;;;;;;;;5083754;28;20050;-30
2021/12/12 02:35:24;;;;;;;1.00;0.85;;;;;;;;;;5068576;28;20042;-30
2021/12/12 02:37:53;;;;;;;1.30;0.90;;;;;;;;;;5084107;28;20047;-28
2021/12/12 02:40:25;;;;;;;1.42;0.82;;;;;;;;;;5082971;28;20044;-30
2021/12/12 02:42:51;;;;;;;1.00;0.80;;;;;;;;;;5083369;28;20101;-31
2021/12/12 02:45:18;;;;;;;1.20;0.77;;;;;;;;;;5083313;28;20074;-30
2021/12/12 02:47:45;;;;;;;0.88;0.75;;;;;;;;;;5084088;28;20062;-29
2021/12/12 02:50:18;;;;;;;1.23;0.88;;;;;;;;;;5083386;28;20831;-37
2021/12/12 02:52:49;;;;;;;0.85;0.70;;;;;;;;;;5083472;28;20124;-35
2021/12/12 02:55:22;;;;;;;1.13;0.80;;;;;;;;;;5083314;28;20107;-32
2021/12/12 02:57:48;;;;;;;1.10;0.93;;;;;;;;;;5083343;28;20024;-31
2021/12/12 03:00:17;;;;;;;1.10;0.90;;;;;;;;;;5083248;28;20051;-32
2021/12/12 03:02:46;;;;;;;0.80;0.65;;;;;;;;;;5083142;28;20028;-33
2021/12/12 03:05:15;;;;;;;1.20;0.88;;;;;;;;;;5083358;28;20024;-31
2021/12/12 03:07:41;;;;;;;1.00;0.70;;;;;;;;;;5083075;28;20031;-28
2021/12/12 03:10:10;;;;;;;1.20;0.70;;;;;;;;;;5083057;28;21025;-30
2021/12/12 03:12:35;;;;;;;0.80;0.70;;;;;;;;;;5082569;28;20066;-32
2021/12/12 03:15:22;;;;;;;0.90;0.60;;;;;;;;;;5083188;28;20048;-31
2021/12/12 03:17:49;;;;;;;0.82;0.63;;;;;;;;;;5082739;28;20040;-32
2021/12/12 03:20:24;;;;;;;1.20;0.85;;;;;;;;;;5082846;28;20096;-30
2021/12/12 03:22:59;;;;;;;1.05;0.73;;;;;;;;;;5082829;28;20601;-31
2021/12/12 03:25:25;;;;;;;0.98;0.75;;;;;;;;;;5065006;28;20486;-29
2021/12/12 03:27:50;;;;;;;1.13;0.60;;;;;;;;;;5082551;28;20062;-31
2021/12/12 03:30:16;;;;;;;0.90;0.63;;;;;;;;;;5082213;28;20047;-29
2021/12/12 03:32:42;;;;;;;1.02;0.70;;;;;;;;;;5083190;28;20477;-31
2021/12/12 03:35:09;;;;;;;0.93;0.70;;;;;;;;;;5082589;28;20024;-31
2021/12/12 03:37:35;;;;;;;0.63;0.60;;;;;;;;;;5082894;28;20028;-32
2021/12/12 03:40:09;;;;;;;0.95;0.75;;;;;;;;;;5083001;28;20379;-28
2021/12/12 03:42:35;;;;;;;0.90;0.57;;;;;;;;;;5082856;28;20111;-31
2021/12/12 03:45:00;;;;;;;0.82;0.65;;;;;;;;;;5082870;28;20505;-29
2021/12/12 03:47:38;;;;;;;0.77;0.70;;;;;;;;;;5083182;28;20119;-35
2021/12/12 03:50:09;;;;;;;1.08;0.90;;;;;;;;;;5066198;28;20040;-29
2021/12/12 03:52:34;;;;;;;1.00;0.80;;;;;;;;;;5082671;28;20040;-31
2021/12/12 03:55:01;;;;;;;1.23;0.90;;;;;;;;;;5082258;28;20111;-30
2021/12/12 03:57:27;;;;;;;0.90;0.70;;;;;;;;;;5082911;28;20020;-31
2021/12/12 03:59:53;;;;;;;1.02;0.75;;;;;;;;;;5082757;28;20024;-29
2021/12/12 04:02:19;;;;;;;1.25;0.80;;;;;;;;;;5047705;28;20043;-34
2021/12/12 04:04:45;;;;;;;1.05;0.73;;;;;;;;;;5082462;28;20068;-35
2021/12/12 04:07:13;;;;;;;1.50;1.00;;;;;;;;;;5082449;28;20028;-30
2021/12/12 04:09:39;;;;;;;0.98;0.75;;;;;;;;;;5082643;28;20024;-34
2021/12/12 04:12:07;;;;;;;1.27;0.90;;;;;;;;;;5082602;28;20032;-33
2021/12/12 04:14:32;;;;;;;1.35;0.80;;;;;;;;;;5082118;28;20119;-29
2021/12/12 04:17:04;;;;;;;1.27;1.02;;;;;;;;;;5081765;28;20131;-32
2021/12/12 04:19:29;;;;;;;1.27;1.05;;;;;;;;;;5082253;28;20032;-33
2021/12/12 04:21:55;;;;;;;1.17;0.98;;;;;;;;;;5081998;28;20024;-32
2021/12/12 04:24:24;;;;;;;1.10;0.90;;;;;;;;;;5082362;28;20112;-29
2021/12/12 04:26:50;;;;;;;1.50;0.77;;;;;;;;;;5082217;28;20028;-32
2021/12/12 04:29:24;;;;;;;1.42;1.00;;;;;;;;;;5082246;28;20059;-30
2021/12/12 04:31:52;;;;;;;1.27;0.90;;;;;;;;;;5081857;28;20600;-31
2021/12/12 04:34:19;;;;;;;1.40;0.88;;;;;;;;;;5082316;28;20025;-37
2021/12/12 04:36:45;;;;;;;1.20;0.90;;;;;;;;;;5064046;28;20028;-30
2021/12/12 04:39:18;;;;;;;0.95;0.80;;;;;;;;;;5082094;28;20062;-32
2021/12/12 04:41:44;;;;;;;0.90;0.73;;;;;;;;;;5067168;28;20500;-33
2021/12/12 04:44:10;;;;;;;2.78;0.90;;;;;;;;;;5085720;28;20031;-32
2021/12/12 04:49:56;;;;;;;0.90;0.73;;;;;;;;;;5071018;28;20043;-30
2021/12/12 04:53:15;;;;;;;1.75;0.85;;;;;;;;;;5054218;28;20558;-30
2021/12/12 04:55:57;;;;;;;0.90;0.80;;;;;;;;;;5044869;28;20688;-30
2021/12/12 04:58:40;;;;;;;1.13;0.90;;;;;;;;;;5083477;28;20036;-33
2021/12/12 05:01:14;;;;;;;0.98;0.82;;;;;;;;;;5063651;28;20047;-29
2021/12/12 05:03:52;;;;;;;0.93;0.70;;;;;;;;;;5047005;28;20584;-31
2021/12/12 05:06:28;;;;;;;0.85;0.70;;;;;;;;;;5064139;28;20392;-29
2021/12/12 05:09:05;;;;;;;1.05;0.75;;;;;;;;;;5046772;28;20043;-32
2021/12/12 05:12:04;;;;;;;1.35;1.00;;;;;;;;;;5065244;28;20078;-28
2021/12/12 05:14:36;;;;;;;1.40;1.10;;;;;;;;;;5043680;28;20151;-32
2021/12/12 05:17:13;;;;;;;1.23;0.90;;;;;;;;;;5047174;28;20032;-30
2021/12/12 05:19:42;;;;;;;0.88;0.70;;;;;;;;;;5063438;28;20514;-30
2021/12/12 05:22:14;;;;;;;0.68;0.57;;;;;;;;;;5064557;28;20024;-31
2021/12/12 05:24:40;;;;;;;0.73;0.60;;;;;;;;;;5047024;28;20079;-30
2021/12/12 05:27:08;;;;;;;1.48;1.10;;;;;;;;;;5064734;28;20039;-32
2021/12/12 05:29:41;;;;;;;1.13;0.80;;;;;;;;;;5064278;28;20055;-33
2021/12/12 05:32:07;;;;;;;0.90;0.70;;;;;;;;;;5046769;28;20044;-30
2021/12/12 05:34:35;;;;;;;1.13;0.80;;;;;;;;;;5064409;28;20033;-33
2021/12/12 05:37:01;;;;;;;1.23;1.00;;;;;;;;;;5062994;28;20055;-33
2021/12/12 05:39:27;;;;;;;1.50;0.90;;;;;;;;;;5065016;28;20070;-32
2021/12/12 05:41:53;;;;;;;1.30;0.90;;;;;;;;;;5064688;28;20024;-30
2021/12/12 05:44:18;;;;;;;1.10;0.80;;;;;;;;;;5046416;28;20454;-30
2021/12/12 05:46:44;;;;;;;1.10;0.80;;;;;;;;;;5045842;28;20024;-34
2021/12/12 05:49:10;;;;;;;1.08;0.80;;;;;;;;;;5064488;28;20055;-31
2021/12/12 05:51:35;;;;;;;1.08;0.88;;;;;;;;;;5062127;28;20058;-30
2021/12/12 05:54:01;;;;;;;1.27;0.93;;;;;;;;;;5064260;28;20033;-29
2021/12/12 05:56:31;;;;;;;0.95;0.85;;;;;;;;;;5063615;28;20047;-30
2021/12/12 05:58:57;;;;;;;0.90;0.70;;;;;;;;;;5064157;28;20032;-33
2021/12/12 06:01:23;;;;;;;1.15;0.80;;;;;;;;;;5064753;28;20040;-33
2021/12/12 06:03:49;;;;;;;1.13;0.80;;;;;;;;;;5045825;28;20048;-33
2021/12/12 06:06:18;;;;;;;1.40;0.80;;;;;;;;;;5063857;28;20029;-30
2021/12/12 06:08:44;;;;;;;1.30;0.90;;;;;;;;;;5046326;28;20453;-34
2021/12/12 06:11:09;;;;;;;0.93;0.73;;;;;;;;;;5064020;28;20112;-29
2021/12/12 06:13:36;;;;;;;1.10;0.73;;;;;;;;;;5065096;28;20043;-32
2021/12/12 06:16:01;;;;;;;1.05;0.90;;;;;;;;;;5064343;28;20028;-30
2021/12/12 06:18:28;;;;;;;1.17;0.80;;;;;;;;;;5050082;28;20043;-31
2021/12/12 06:20:54;;;;;;;0.77;0.60;;;;;;;;;;5065620;28;20056;-29
2021/12/12 06:23:19;;;;;;;1.77;0.90;;;;;;;;;;5065897;28;20055;-31
2021/12/12 06:25:45;;;;;;;1.70;0.82;;;;;;;;;;5083643;28;20024;-30
2021/12/12 06:28:21;;;;;;;0.75;0.60;;;;;;;;;;5083586;28;20024;-30
2021/12/12 06:30:46;;;;;;;1.45;1.00;;;;;;;;;;5083583;28;20032;-30
2021/12/12 06:33:12;;;;;;;1.75;0.88;;;;;;;;;;5082334;28;20426;-31
2021/12/12 06:35:38;;;;;;;0.90;0.60;;;;;;;;;;5082640;28;20032;-31
2021/12/12 06:38:05;;;;;;;1.25;0.95;;;;;;;;;;5083774;28;20119;-30
2021/12/12 06:40:31;;;;;;;4.45;0.90;;;;;;;;;;5082516;28;20444;-30
2021/12/12 06:42:58;;;;;;;2.58;0.90;;;;;;;;;;5079492;28;20031;-29
2021/12/12 06:45:23;;;;;;;2.88;0.70;;;;;;;;;;5060009;28;20032;-30
2021/12/12 06:47:49;;;;;;;1.25;0.85;;;;;;;;;;5053104;28;20020;-32
2021/12/12 06:50:14;;;;;;;0.90;0.80;;;;;;;;;;5082808;28;20032;-31
2021/12/12 06:52:40;;;;;;;1.35;0.80;;;;;;;;;;5064279;28;20024;-30
2021/12/12 06:55:07;;;;;;;1.95;1.27;;;;;;;;;;5082352;28;20406;-28
2021/12/12 06:57:33;;;;;;;1.08;0.85;;;;;;;;;;5082646;28;20028;-29
2021/12/12 06:59:58;;;;;;;3.50;0.65;;;;;;;;;;5080587;28;20107;-31
2021/12/12 07:02:25;;;;;;;1.50;0.90;;;;;;;;;;5057353;28;20031;-29
2021/12/12 07:04:51;;;;;;;1.25;0.90;;;;;;;;;;5064917;28;20484;-30
2021/12/12 07:07:17;;;;;;;1.27;0.80;;;;;;;;;;5082212;28;20485;-29
2021/12/12 07:09:43;;;;;;;1.15;0.75;;;;;;;;;;5081782;28;20032;-32
2021/12/12 07:12:10;;;;;;;3.33;1.00;;;;;;;;;;5083201;28;20107;-28
2021/12/12 07:14:36;;;;;;;2.10;0.82;;;;;;;;;;5078883;28;20020;-31
2021/12/12 07:17:02;;;;;;;1.77;1.10;;;;;;;;;;5083166;28;20051;-29
2021/12/12 07:19:28;;;;;;;1.40;1.05;;;;;;;;;;5076673;28;20033;-30
2021/12/12 07:21:53;;;;;;;3.10;0.93;;;;;;;;;;5076275;28;20060;-35
2021/12/12 07:24:19;;;;;;;4.22;0.93;;;;;;;;;;5070061;28;20047;-33
2021/12/12 07:26:44;;;;;;;3.00;1.00;;;;;;;;;;5055600;28;20096;-32
2021/12/12 07:29:10;;;;;;;2.58;1.10;;;;;;;;;;5081660;28;20582;-32
2021/12/12 07:31:36;;;;;;;1.88;0.80;;;;;;;;;;5062618;28;20024;-32
2021/12/12 07:34:04;;;;;;;5.65;0.82;;;;;;;;;;5075643;28;20119;-29
2021/12/12 07:36:34;;;;;;;1.90;1.00;;;;;;;;;;5080629;28;20032;-35
2021/12/12 07:39:03;;;;;;;2.70;1.10;;;;;;;;;;5070533;28;20202;-30
2021/12/12 07:41:29;;;;;;;4.03;0.90;;;;;;;;;;5077630;28;20020;-32
2021/12/12 07:43:55;;;;;;;3.30;1.00;;;;;;;;;;5076161;28;20513;-31
2021/12/12 07:46:20;;;;;;;1.98;1.08;;;;;;;;;;5078782;28;20056;-29
2021/12/12 07:48:51;;;;;;;2.47;1.40;;;;;;;;;;5064686;28;20103;-33
2021/12/12 07:51:17;;;;;;;5.80;1.10;;;;;;;;;;5082626;28;20028;-29
2021/12/12 07:53:43;;;;;;;2.80;1.30;;;;;;;;;;5064347;28;20503;-32
2021/12/12 07:56:08;;;;;;;2.63;1.15;;;;;;;;;;5049018;28;20375;-32
2021/12/12 07:58:34;;;;;;;3.50;1.27;;;;;;;;;;5062615;28;20384;-34
2021/12/12 08:01:00;;;;;;;6.50;1.77;;;;;;;;;;5027971;28;20036;-30
2021/12/12 08:03:30;;;;;;;6.25;2.13;;;;;;;;;;5062173;28;20029;-35
2021/12/12 08:05:56;;;;;;;12.75;9.48;;;;;;;;;;5068203;28;20030;-31
2021/12/12 08:08:21;;;;;;;12.10;6.75;;;;;;;;;;5057801;28;20024;-29
2021/12/12 08:10:49;;;;;;;13.88;7.72;;;;;;;;;;5038547;28;20047;-28
2021/12/12 08:13:14;;;;;;;10.60;7.57;;;;;;;;;;5081722;28;20107;-30
2021/12/12 08:15:40;;;;;;;13.63;7.72;;;;;;;;;;5084488;28;20028;-33
2021/12/12 08:18:07;;;;;;;11.93;7.72;;;;;;;;;;5085341;28;20394;-31
2021/12/12 08:20:32;;;;;;;10.90;8.07;;;;;;;;;;5078376;28;20034;-33
2021/12/12 08:22:58;;;;;;;13.00;7.18;;;;;;;;;;5079533;28;20490;-33
2021/12/12 08:25:24;;;;;;;9.90;7.07;;;;;;;;;;5058682;28;20636;-31
2021/12/12 08:27:49;;;;;;;12.63;6.90;;;;;;;;;;5067441;28;20032;-29
2021/12/12 08:30:16;;;;;;;10.73;5.80;;;;;;;;;;5083615;28;20402;-29
2021/12/12 08:32:42;;;;;;;11.85;6.85;;;;;;;;;;5083507;28;20836;-27
2021/12/12 08:35:10;;;;;;;12.55;6.63;;;;;;;;;;5085057;28;20797;-31
2021/12/12 08:37:36;;;;;;;14.30;6.47;;;;;;;;;;5086024;28;20105;-32
2021/12/12 08:40:03;;;;;;;14.80;6.35;;;;;;;;;;5086062;28;20031;-31
2021/12/12 08:42:29;;;;;;;8.02;5.80;;;;;;;;;;5067775;28;20042;-30
2021/12/12 08:44:55;;;;;;;7.22;5.50;;;;;;;;;;5051324;28;20036;-29
2021/12/12 08:47:21;;;;;;;15.57;6.32;;;;;;;;;;5085579;28;20039;-28
2021/12/12 08:49:46;;;;;;;10.23;5.72;;;;;;;;;;5067109;28;20059;-28
2021/12/12 08:52:14;;;;;;;8.25;5.75;;;;;;;;;;5045950;28;20016;-29
2021/12/12 08:54:41;;;;;;;7.97;5.03;;;;;;;;;;5071337;28;20479;-30
2021/12/12 08:57:13;;;;;;;7.25;5.50;;;;;;;;;;5073386;28;20027;-29
2021/12/12 08:59:40;;;;;;;9.93;5.47;;;;;;;;;;5076860;28;20024;-30
2021/12/12 09:02:10;;;;;;;7.35;5.18;;;;;;;;;;5080272;28;20399;-28
2021/12/12 09:04:39;;;;;;;6.55;4.70;;;;;;;;;;5077089;28;20031;-33
2021/12/12 09:07:09;;;;;;;14.50;5.90;;;;;;;;;;5074494;28;20056;-33
2021/12/12 09:09:59;;;;;;;5.60;4.72;;;;;;;;;;5083041;28;20119;-34
2021/12/12 09:12:29;;;;;;;10.45;5.07;;;;;;;;;;5084808;28;20039;-31
2021/12/12 09:14:59;;;;;;;12.13;4.97;;;;;;;;;;5066757;28;20085;-31
2021/12/12 09:17:33;;;;;;;11.40;5.80;;;;;;;;;;5066275;28;20132;-30
2021/12/12 09:20:11;;;;;;;9.77;5.80;;;;;;;;;;5065855;28;20039;-29
2021/12/12 09:22:44;;;;;;;7.78;5.63;;;;;;;;;;5084689;28;20020;-29
2021/12/12 09:25:35;;;;;;;10.40;5.43;;;;;;;;;;5066470;28;20059;-31
2021/12/12 09:28:10;;;;;;;11.40;5.07;;;;;;;;;;5083443;28;20127;-30
2021/12/12 09:30:36;;;;;;;10.10;5.63;;;;;;;;;;5047645;28;20040;-28
2021/12/12 09:33:12;;;;;;;9.32;5.90;;;;;;;;;;5064262;28;20028;-30
2021/12/12 09:36:06;;;;;;;9.32;5.20;;;;;;;;;;5066321;28;20447;-30
2021/12/12 09:39:04;;;;;;;7.25;5.13;;;;;;;;;;5052289;28;20033;-29
2021/12/12 09:41:50;;;;;;;20.80;11.52;;;;;;;;;;5010631;28;20099;-31
2021/12/12 09:44:41;;;;;;;312.75;184.27;;;;;;;;;;5065402;28;20177;-31
2021/12/12 09:53:47;;;;;;;352.35;217.65;;;;;;;;;;5064068;28;20114;-29
2021/12/12 09:56:56;;;;;;;307.50;189.20;;;;;;;;;;5063540;28;20093;-28
2021/12/12 09:59:24;;;;;;;270.02;158.60;;;;;;;;;;5020141;28;20044;-31
2021/12/12 10:02:02;;;;;;;247.93;149.55;;;;;;;;;;5064557;28;20039;-29
2021/12/12 10:04:31;;;;;;;228.77;132.32;;;;;;;;;;5046085;28;20089;-29
2021/12/12 10:07:13;;;;;;;211.90;122.25;;;;;;;;;;5046079;28;20020;-30
2021/12/12 10:09:45;;;;;;;179.80;107.20;;;;;;;;;;5045949;28;20037;-28
2021/12/12 10:12:17;;;;;;;172.77;101.63;;;;;;;;;;5045506;28;20388;-27
2021/12/12 10:14:49;;;;;;;149.10;90.57;;;;;;;;;;5063902;28;20037;-29
2021/12/12 10:17:28;;;;;;;143.75;86.43;;;;;;;;;;5063631;28;20029;-32
2021/12/12 10:20:09;;;;;;;135.52;80.70;;;;;;;;;;5045287;28;20028;-30
2021/12/12 10:23:04;;;;;;;129.10;73.55;;;;;;;;;;5063774;28;20032;-29
2021/12/12 10:25:42;;;;;;;116.70;67.95;;;;;;;;;;5002728;28;20044;-30
2021/12/12 10:28:19;;;;;;;101.47;61.80;;;;;;;;;;5045545;28;20036;-28
2021/12/12 10:30:54;;;;;;;98.15;56.92;;;;;;;;;;5074164;28;20166;-31
2021/12/12 10:33:32;;;;;;;91.40;55.85;;;;;;;;;;5067434;28;20036;-31
2021/12/12 10:36:02;;;;;;;87.15;51.75;;;;;;;;;;5064411;28;20080;-28
2021/12/12 10:38:37;;;;;;;79.90;48.88;;;;;;;;;;5065211;28;20032;-30
2021/12/12 10:41:24;;;;;;;76.43;47.30;;;;;;;;;;5083249;28;20036;-28
2021/12/12 10:43:59;;;;;;;75.30;44.53;;;;;;;;;;5083462;28;20028;-30
2021/12/12 10:47:01;;;;;;;65.10;39.20;;;;;;;;;;5083804;28;20235;-30
2021/12/12 10:49:55;;;;;;;56.05;35.33;;;;;;;;;;5040099;28;20122;-27
2021/12/12 10:52:30;;;;;;;59.20;36.60;;;;;;;;;;5082842;28;20558;-30
2021/12/12 10:54:58;;;;;;;58.72;35.90;;;;;;;;;;5082974;28;20092;-32
2021/12/12 10:57:29;;;;;;;61.40;32.35;;;;;;;;;;5066140;28;20138;-29
2021/12/12 11:00:09;;;;;;;52.70;31.63;;;;;;;;;;5083228;28;20723;-29
2021/12/12 11:02:41;;;;;;;46.00;29.13;;;;;;;;;;5083652;28;20139;-29
2021/12/12 11:05:10;;;;;;;48.92;29.48;;;;;;;;;;5065616;28;20043;-34
2021/12/12 11:07:38;;;;;;;46.60;27.23;;;;;;;;;;5082285;28;20796;-29
2021/12/12 11:10:19;;;;;;;42.63;26.45;;;;;;;;;;5074689;28;20052;-31
2021/12/12 11:12:55;;;;;;;43.03;26.02;;;;;;;;;;5076465;28;20097;-30
2021/12/12 11:15:28;;;;;;;42.35;24.85;;;;;;;;;;5045940;28;20046;-29
2021/12/12 11:18:08;;;;;;;35.38;22.83;;;;;;;;;;5070624;28;20781;-30
2021/12/12 11:21:11;;;;;;;35.53;22.80;;;;;;;;;;5044378;28;20032;-29
2021/12/12 11:23:58;;;;;;;35.23;20.60;;;;;;;;;;5031535;28;20031;-33
2021/12/12 11:26:34;;;;;;;33.92;20.80;;;;;;;;;;5062666;28;20262;-32
2021/12/12 11:29:04;;;;;;;29.55;19.70;;;;;;;;;;5045222;28;20056;-32
2021/12/12 11:31:57;;;;;;;29.70;20.13;;;;;;;;;;5066221;28;20028;-28
2021/12/12 11:34:23;;;;;;;36.33;19.80;;;;;;;;;;5076439;28;20079;-30
2021/12/12 11:37:19;;;;;;;31.10;19.13;;;;;;;;;;5074422;28;20070;-28
2021/12/12 11:39:54;;;;;;;27.58;18.02;;;;;;;;;;5074983;28;20028;-28
2021/12/12 11:42:26;;;;;;;28.42;17.65;;;;;;;;;;5053359;28;20040;-28
2021/12/12 11:45:11;;;;;;;26.50;16.50;;;;;;;;;;5044335;28;20025;-33
2021/12/12 11:47:58;;;;;;;24.98;16.92;;;;;;;;;;5062825;28;20059;-30
2021/12/12 11:50:46;;;;;;;26.90;17.65;;;;;;;;;;5048518;28;20060;-33
2021/12/12 11:53:36;;;;;;;23.38;16.15;;;;;;;;;;5049796;28;21048;-28
2021/12/12 11:56:29;;;;;;;24.13;16.05;;;;;;;;;;5067210;28;20174;-31
2021/12/12 11:59:23;;;;;;;22.45;15.45;;;;;;;;;;5066054;28;20493;-32
2021/12/12 12:01:51;;;;;;;25.02;15.18;;;;;;;;;;5080479;28;20407;-28
2021/12/12 12:04:31;;;;;;;25.30;13.80;;;;;;;;;;5086942;28;20047;-29
2021/12/12 12:07:08;;;;;;;18.42;12.80;;;;;;;;;;5067317;28;20059;-34
2021/12/12 12:09:55;;;;;;;19.95;13.40;;;;;;;;;;5086166;28;20039;-31
2021/12/12 12:12:36;;;;;;;19.60;12.93;;;;;;;;;;5085839;28;20031;-29
2021/12/12 12:15:26;;;;;;;20.23;13.20;;;;;;;;;;5086718;28;20028;-32
2021/12/12 12:17:54;;;;;;;18.92;12.35;;;;;;;;;;5086390;28;20032;-29
2021/12/12 12:20:29;;;;;;;21.38;12.43;;;;;;;;;;5086915;28;20117;-31
2021/12/12 12:23:42;;;;;;;19.40;12.13;;;;;;;;;;5086156;28;20032;-31
2021/12/12 12:29:27;;;;;;;16.52;11.10;;;;;;;;;;5085831;28;20059;-35
2021/12/12 12:32:31;;;;;;;16.98;10.38;;;;;;;;;;5062456;28;20039;-29
2021/12/12 12:35:15;;;;;;;17.63;10.80;;;;;;;;;;5085546;28;20426;-33
2021/12/12 12:38:17;;;;;;;16.75;10.70;;;;;;;;;;5086315;28;20036;-30
2021/12/12 12:41:10;;;;;;;18.48;11.07;;;;;;;;;;5085837;28;20063;-33
2021/12/12 12:43:57;;;;;;;16.45;10.73;;;;;;;;;;5086165;28;20079;-34
2021/12/12 12:47:00;;;;;;;15.75;9.40;;;;;;;;;;5085947;28;20558;-29
2021/12/12 12:49:55;;;;;;;13.57;9.23;;;;;;;;;;5085911;28;20065;-32
2021/12/12 12:52:58;;;;;;;14.10;9.38;;;;;;;;;;5085228;28;20077;-32
2021/12/12 12:55:42;;;;;;;15.60;9.73;;;;;;;;;;5081375;28;20052;-31
2021/12/12 12:58:12;;;;;;;13.60;9.13;;;;;;;;;;5065389;28;20151;-33
2021/12/12 13:00:38;;;;;;;14.38;8.50;;;;;;;;;;5046798;28;20123;-31
2021/12/12 13:03:19;;;;;;;12.75;8.50;;;;;;;;;;5065191;28;20029;-33
2021/12/12 13:06:07;;;;;;;12.38;8.30;;;;;;;;;;5065552;28;20035;-29
2021/12/12 13:09:00;;;;;;;10.93;7.60;;;;;;;;;;5064919;28;20039;-31
2021/12/12 13:11:40;;;;;;;12.85;8.02;;;;;;;;;;5065250;28;20067;-32
2021/12/12 13:14:31;;;;;;;11.57;7.75;;;;;;;;;;5064663;28;20058;-30
2021/12/12 13:17:03;;;;;;;10.98;7.25;;;;;;;;;;5065517;28;20048;-28
2021/12/12 13:19:38;;;;;;;12.00;7.47;;;;;;;;;;5047009;28;20028;-32
2021/12/12 13:22:29;;;;;;;10.95;7.57;;;;;;;;;;5064966;28;20528;-28
2021/12/12 13:25:10;;;;;;;9.75;7.22;;;;;;;;;;5046500;28;20048;-31
2021/12/12 13:28:08;;;;;;;10.27;7.07;;;;;;;;;;5046882;28;20032;-29
2021/12/12 13:30:47;;;;;;;12.38;7.50;;;;;;;;;;5051749;28;20076;-31
2021/12/12 13:33:38;;;;;;;11.85;6.78;;;;;;;;;;5066361;28;20486;-35
2021/12/12 13:36:25;;;;;;;18.55;6.90;;;;;;;;;;5084783;28;20376;-31
2021/12/12 13:38:53;;;;;;;11.05;6.82;;;;;;;;;;5067864;28;20028;-29
2021/12/12 13:41:44;;;;;;;10.35;6.60;;;;;;;;;;5078673;28;20030;-28
2021/12/12 13:44:17;;;;;;;13.68;6.40;;;;;;;;;;5081240;28;20344;-31
2021/12/12 13:46:58;;;;;;;18.48;6.72;;;;;;;;;;5079000;28;20039;-32
2021/12/12 13:49:28;;;;;;;21.25;7.35;;;;;;;;;;5075870;28;20456;-33
2021/12/12 13:52:10;;;;;;;18.35;8.10;;;;;;;;;;5073385;28;20089;-32
2021/12/12 13:54:40;;;;;;;22.00;7.32;;;;;;;;;;5065176;28;20817;-30
2021/12/12 13:57:22;;;;;;;17.70;7.45;;;;;;;;;;5075878;28;20036;-34
2021/12/12 14:00:10;;;;;;;18.10;7.35;;;;;;;;;;5055883;28;20050;-29
2021/12/12 14:02:37;;;;;;;17.73;7.00;;;;;;;;;;5073457;28;20047;-29
2021/12/12 14:05:25;;;;;;;15.68;7.32;;;;;;;;;;5073917;28;20028;-30
2021/12/12 14:08:04;;;;;;;17.48;7.60;;;;;;;;;;5061453;28;20028;-30
2021/12/12 14:10:45;;;;;;;19.70;7.47;;;;;;;;;;5063729;28;20098;-33
2021/12/12 14:13:17;;;;;;;24.65;6.85;;;;;;;;;;5044653;28;20029;-28
2021/12/12 14:16:13;;;;;;;24.30;6.80;;;;;;;;;;5043672;28;20037;-29
2021/12/12 14:18:48;;;;;;;18.50;7.68;;;;;;;;;;5048393;28;20050;-34
2021/12/12 14:21:14;;;;;;;19.10;6.57;;;;;;;;;;5050308;28;20419;-31
2021/12/12 14:23:40;;;;;;;16.77;7.32;;;;;;;;;;5046027;28;20610;-33
2021/12/12 14:26:20;;;;;;;20.80;7.60;;;;;;;;;;5045780;28;20032;-28
2021/12/12 14:28:58;;;;;;;20.42;6.55;;;;;;;;;;5063285;28;20113;-32
2021/12/12 14:31:26;;;;;;;27.08;6.88;;;;;;;;;;5074860;28;20028;-28
2021/12/12 14:34:04;;;;;;;22.52;7.65;;;;;;;;;;5060947;28;20024;-29
2021/12/12 14:36:31;;;;;;;13.88;6.55;;;;;;;;;;5063567;28;20054;-29
2021/12/12 14:38:57;;;;;;;16.42;6.40;;;;;;;;;;5045062;28;20032;-30
2021/12/12 14:41:33;;;;;;;14.27;7.07;;;;;;;;;;5063706;28;20107;-32
2021/12/12 14:44:00;;;;;;;13.80;6.28;;;;;;;;;;5046210;28;20251;-30
2021/12/12 14:46:33;;;;;;;17.00;6.90;;;;;;;;;;5063491;28;20157;-33
2021/12/12 14:49:11;;;;;;;15.57;7.00;;;;;;;;;;5044744;28;20028;-29
2021/12/12 14:52:03;;;;;;;12.55;6.05;;;;;;;;;;5061697;28;20124;-32
2021/12/12 14:54:39;;;;;;;16.60;6.68;;;;;;;;;;5049985;28;20478;-31
2021/12/12 14:57:05;;;;;;;14.32;6.60;;;;;;;;;;5054033;28;20056;-28
2021/12/12 14:59:36;;;;;;;16.52;7.07;;;;;;;;;;5074839;28;20020;-32
2021/12/12 15:02:15;;;;;;;14.93;6.20;;;;;;;;;;5048152;28;20027;-33
2021/12/12 15:05:03;;;;;;;14.18;6.55;;;;;;;;;;5082973;28;20028;-29
2021/12/12 15:07:34;;;;;;;11.57;6.13;;;;;;;;;;5067483;28;20028;-28
2021/12/12 15:10:19;;;;;;;13.32;5.32;;;;;;;;;;5062635;28;20056;-28
2021/12/12 15:12:47;;;;;;;18.63;6.10;;;;;;;;;;5063230;28;20028;-28
2021/12/12 15:15:31;;;;;;;14.23;6.75;;;;;;;;;;5063088;28;20024;-32
2021/12/12 15:18:05;;;;;;;10.90;6.43;;;;;;;;;;5044628;28;20391;-29
2021/12/12 15:20:36;;;;;;;16.15;6.80;;;;;;;;;;5062778;28;20411;-31
2021/12/12 15:23:16;;;;;;;10.98;5.47;;;;;;;;;;5062779;28;20032;-35
2021/12/12 15:25:44;;;;;;;13.82;6.03;;;;;;;;;;5045467;28;20090;-32
2021/12/12 15:28:12;;;;;;;14.15;6.45;;;;;;;;;;5082385;28;20036;-31
2021/12/12 15:30:58;;;;;;;15.05;6.70;;;;;;;;;;5083323;28;20541;-34
2021/12/12 15:33:26;;;;;;;28.25;6.50;;;;;;;;;;5081901;28;20032;-29
2021/12/12 15:36:00;;;;;;;16.38;5.85;;;;;;;;;;5079560;28;20036;-30